TBPB

Sir Grantley Adams International Airport

Bridgetown, Barbados
TAF TBPB 171100Z 1712/1812 11013KT 9999 FEW014CB SCT016 TEMPO 1712/1724 11015G26KT 5000 TSRA SCT010CB BKN014 PROB30 TEMPO 1804/1812 SHRA RA BKN014
Issued Valid From Valid To
Aug-17 @ 11:00 UTC
(4 hours ago)
Aug-17 @ 12:00 UTC
(3 hours ago)
Aug-18 @ 12:00 UTC
(in 21 hours)
Aug-17 @ 12:00 to Aug-18 @ 12:00
TAF TBPB 171100Z 1712/1812 11013KT 9999 FEW014CB SCT016
Wind Visibility Clouds
110° at 13 knots 10,000+ meters
  • Few at 1,400' AGL
  • Scattered at 1,600' AGL
Temporary Aug-17 @ 12:00 to Aug-18 @ 00:00
TEMPO 1712/1724 11015G26KT 5000 TSRA SCT010CB BKN014
Wind Visibility Clouds Conditions
110° at 15 knots
 Gusting to 26 knots
5,005 meters
  • Scattered at 1,000' AGL
  • Broken at 1,400' AGL
  • Thunderstorm
  • Rain
Temporary  (Probability 30%) Aug-18 @ 04:00 to Aug-18 @ 12:00
PROB30 TEMPO 1804/1812 SHRA RA BKN014
Clouds Conditions
  • Broken at 1,400' AGL
  • Rain
  • Rain
TAF TBPB 171100Z 1712/1812 11013KT 9999 FEW014CB SCT016 TEMPO 1712/1724 11015G26KT 5000 TSRA SCT010CB BKN014 PROB30 TEMPO 1804/1812 SHRA RA BKN014
Issued Aug-17 @ 11:00 UTC
(4 hours ago)
Valid From Aug-17 @ 12:00 UTC
(3 hours ago)
Valid To Aug-18 @ 12:00 UTC
(in 21 hours)
Aug-17 @ 12:00 - Aug-18 @ 12:00
Wind Visibility
110° at 13 knots 10,000+ meters
Clouds
  • Few at 1,400' AGL
  • Scattered at 1,600' AGL
Temporary Aug-17 @ 12:00 - Aug-18 @ 00:00
Wind Visibility
110° at 15 knots
 Gusting to 26 knots
5,005 meters
Clouds
  • Scattered at 1,000' AGL
  • Broken at 1,400' AGL
Conditions
  • Thunderstorm
  • Rain
Probability 30% Temporary Aug-18 @ 04:00 - Aug-18 @ 12:00
Clouds
  • Broken at 1,400' AGL
Conditions
  • Rain
  • Rain